Nearby METAR Reports

 

KLBE - Latrobe/Westmorl, Pennsylvania, USA
Distance from station: SE 16mi, 26km
Updated: Tue, 24-Jan-2017 1:47pm EST
Overcast
Overcast
 Wind from WNW
Wind: WNW 9 mph , 15 km/h, Gust: 17 mph , 28 km/h
Temperature: 39°F , 4°C
Wind Chill: 33°F , 1°C
Dew Point: 36°F , 2°C
Humidity: 87%
Barometer: 29.65 inHg , 1004.1 hPa
Clouds: Overcast
Visibility: 15 miles , 24 km
Cloud details: Overcast 1500 ft
2017/01/24 18:47 KLBE 241847Z 30008G15KT 15SM OVC015 04/02 A2965
KAGC - Pittsburgh/Alleg, Pennsylvania, USA
Distance from station: WSW 18mi, 30km
Updated: Tue, 24-Jan-2017 1:53pm EST
Overcast
Overcast
 Wind from NW
Wind: NW 13 mph , 20 km/h, Gust: 29 mph , 46 km/h
Temperature: 37°F , 3°C
Wind Chill: 29°F , -2°C
Dew Point: 34°F , 1°C
Humidity: 87%
Barometer: 29.65 inHg , 1004.1 hPa
Clouds: Overcast
Visibility: 10 miles , 16 km
Cloud details: Overcast 900 ft
2017/01/24 18:53 KAGC 241853Z 32011G25KT 10SM OVC009 03/01 A2965 RMK AO2 SLP052 T00330006
 
KBTP - Butler Co., Pennsylvania, USA
Distance from station: NW 29mi, 47km
Updated: Tue, 24-Jan-2017 2:15pm EST
Overcast
Overcast
 Wind from WNW
Wind: WNW 8 mph , 13 km/h
Temperature: 37°F , 3°C
Wind Chill: 31°F , -1°C
Dew Point: 32°F , 0°C
Humidity: 81%
Barometer: 29.68 inHg , 1005.1 hPa
Clouds: Overcast
Visibility: 10 miles , 16 km
Cloud details: Overcast 1000 ft
2017/01/24 19:15 KBTP 241915Z AUTO 29007KT 10SM OVC010 03/00 A2968 RMK AO1
KIDI - Indiana/Stewart, Pennsylvania, USA
Distance from station: ENE 29mi, 47km
Updated: Tue, 24-Jan-2017 2:15pm EST
Overcast
Overcast
 Wind from WNW
Wind: WNW 6 mph , 9 km/h
Temperature: 36°F , 2°C
Wind Chill: 31°F , -1°C
Dew Point: 36°F , 2°C
Humidity: 100%
Barometer: 29.65 inHg , 1004.1 hPa
Clouds: Overcast
Visibility: 10 miles , 16 km
Cloud details: Overcast 1300 ft
2017/01/24 19:15 KIDI 241915Z AUTO 29005KT 10SM OVC013 02/02 A2965 RMK A01
 
KPIT - Pittsburgh, Pennsylvania, USA
Distance from station: W 36mi, 57km
Updated: Tue, 24-Jan-2017 1:51pm EST
Overcast
Overcast
 Wind from NW
Wind: NW 15 mph , 24 km/h
Temperature: 39°F , 4°C
Wind Chill: 31°F , -1°C
Dew Point: 37°F , 3°C
Humidity: 93%
Barometer: 29.66 inHg , 1004.4 hPa
Clouds: Overcast
Visibility: 10 miles , 16 km
Cloud details: Overcast 900 ft
2017/01/24 18:51 KPIT 241851Z 31013KT 10SM OVC009 04/03 A2966 RMK AO2 RAE44 SLP060 P0000 T00390028
KJST - Johnstown, Pennsylvania, USA
Distance from station: ESE 41mi, 66km
Updated: Tue, 24-Jan-2017 1:54pm EST
Mist, Overcast
Mist, Overcast
 Wind from NW
Wind: NW 20 mph , 31 km/h, Gust: 30 mph , 48 km/h
Temperature: 34°F , 1°C
Wind Chill: 23°F , -5°C
Dew Point: 34°F , 1°C
Humidity: 100%
Barometer: 29.55 inHg , 1000.7 hPa
Summary: Mist
Clouds: Overcast
Visibility: 3 miles , 5 km
Cloud details: Overcast 200 ft
2017/01/24 18:54 KJST 241854Z AUTO 31017G26KT 3SM BR OVC002 01/01 A2955 RMK AO2 PK WND 32026/1845 UPB12E22SNE12 SLP025 P0000 T00060006 TSNO
 
KAFJ - Washington, Pennsylvania, USA
Distance from station: WSW 42mi, 68km
Updated: Tue, 24-Jan-2017 2:15pm EST
Overcast
Overcast
 Wind from WNW
Wind: WNW 9 mph , 15 km/h
Temperature: 41°F , 5°C
Wind Chill: 35°F , 2°C
Dew Point: 36°F , 2°C
Humidity: 81%
Barometer: 29.68 inHg , 1005.1 hPa
Clouds: Overcast
Visibility: 10 miles , 16 km
Cloud details: Overcast 1200 ft
2017/01/24 19:15 KAFJ 241915Z AUTO 29008KT 10SM OVC012 05/02 A2968 RMK AO1
KBVI - Beaver Falls Arp, Pennsylvania, USA
Distance from station: WNW 48mi, 77km
Updated: Tue, 24-Jan-2017 1:47pm EST
Overcast
Overcast
 Wind from NW
Wind: NW 8 mph , 13 km/h
Temperature: 36°F , 2°C
Wind Chill: 30°F , -1°C
Dew Point: 34°F , 1°C
Humidity: 93%
Barometer: 29.68 inHg , 1005.1 hPa
Clouds: Overcast
Visibility: 10 miles , 16 km
Cloud details: Overcast 500 ft
2017/01/24 18:47 KBVI 241847Z 32007KT 10SM OVC005 02/01 A2968